Terminal Aerodrome Forecast
Issued by NWS Cleveland, OH

Home | Current Version | Previous Version | Graphics & Text | Print | Product List | Glossary On
Versions: 1 2 3 4 5 6 7 8 9 10 11 12 13 14 15 16 17 18
000
FTUS41 KCLE 161446 AAB
TAFTOL
TAF AMD
KTOL 161446Z 1615/1712 25010KT P6SM -SN OVC035
      TEMPO 1615/1618 3SM -SN OVC025
     FM161800 25009KT P6SM VCSH OVC030
      TEMPO 1618/1620 BKN035
     FM162200 25005KT P6SM BKN020
     FM171000 26004KT P6SM BKN035=

USA.gov is the U.S. government's official web portal to all federal, state and local government web resources and services.